North Dighton, MA (02764)

1:31 PM EDT on October 01, 2016 (GMT -0400)
North Dighton | | Change Station

Elev 65 ft 41.87 °N, 71.14 °W | Updated 6 seconds ago

Overcast
Overcast
59.9 °F
Feels Like 59.9 °F
N
3.0
Wind Variable Wind from North
Gusts 10.0 mph

Today
High -- | Low -- °F
--% Chance of Precip.
Yesterday
High -- | Low -- °F
Precip. -- in
Pressure 30.20 in
Visibility 3.0 miles
Clouds Overcast 700 ft
Dew Point 53 °F
Humidity 78%
Rainfall 1.46 in
Snow Depth Not available.
6:42 AM 6:25 PM
New Moon, 1% visible
SPECI KTAN 011729Z AUTO 03007KT 360V060 3SM -RA BR OVC007 16/15 A3020 RMK AO2 CIG 004V010 P0000 T01610150 $
Pressure 30.20 in
Visibility 3.0 miles
Clouds Overcast 700 ft
Dew Point 53 °F
Humidity 78%
Rainfall 1.46 in
Snow Depth Not available.
6:42 AM 6:25 PM
New Moon, 1% visible
SPECI KTAN 011729Z AUTO 03007KT 360V060 3SM -RA BR OVC007 16/15 A3020 RMK AO2 CIG 004V010 P0000 T01610150 $

10-Day Weather Forecast

Almanac

Astronomy

Oct. 01, 2016 Rise Set
Actual Time
Civil Twilight
Nautical Twilight
Astronomical Twilight
Moon
Length of Visible Light
Length of Day
Tomorrow will be .
, % of the Moon is Illuminated

Today's Extremes

State Highs State Lows

Community

WunderPhotos

Upload Photos

1,942,963 photos uploaded!

WunderBlog® & News

Nearby

Air Quality

  Air Quality AQ Index Pollutant
Not available.

Snow Depth

Station Depth Elevation

Earthquake Activity

City Distance Mag. Time & Date
Minimum magnitude displayed is 2.5.

Coastal Water Temperatures

Place Temperature

Stations

Nearby Weather Stations

Station Location Temp. Windchill Dew Point Humidity Wind Precip. Elev Updated Type
                   

Watches & Warnings

There are currently no watches in effect.